sensor_id;sensor_type;location;lat;lon;timestamp;P1;durP1;ratioP1;P2;durP2;ratioP2
15281;SDS011;7742;44.320;19.820;2024-02-16T00:01:00;13.50;;;12.70;;
15281;SDS011;7742;44.320;19.820;2024-02-16T00:03:28;15.47;;;14.50;;
15281;SDS011;7742;44.320;19.820;2024-02-16T00:05:55;16.37;;;15.37;;
15281;SDS011;7742;44.320;19.820;2024-02-16T00:08:22;13.03;;;12.33;;
15281;SDS011;7742;44.320;19.820;2024-02-16T00:10:48;15.27;;;14.27;;
15281;SDS011;7742;44.320;19.820;2024-02-16T00:13:15;16.27;;;15.30;;
15281;SDS011;7742;44.320;19.820;2024-02-16T00:15:44;15.13;;;14.37;;
15281;SDS011;7742;44.320;19.820;2024-02-16T00:18:11;12.37;;;11.57;;
15281;SDS011;7742;44.320;19.820;2024-02-16T00:20:38;16.17;;;15.27;;
15281;SDS011;7742;44.320;19.820;2024-02-16T00:23:05;14.97;;;14.07;;
15281;SDS011;7742;44.320;19.820;2024-02-16T00:25:32;14.33;;;13.53;;
15281;SDS011;7742;44.320;19.820;2024-02-16T00:27:59;12.73;;;11.93;;
15281;SDS011;7742;44.320;19.820;2024-02-16T00:30:26;16.37;;;15.47;;
15281;SDS011;7742;44.320;19.820;2024-02-16T00:32:55;16.73;;;15.83;;
15281;SDS011;7742;44.320;19.820;2024-02-16T00:35:22;16.50;;;15.20;;
15281;SDS011;7742;44.320;19.820;2024-02-16T00:37:49;16.13;;;15.23;;
15281;SDS011;7742;44.320;19.820;2024-02-16T00:40:17;15.07;;;14.20;;
15281;SDS011;7742;44.320;19.820;2024-02-16T00:42:44;13.33;;;12.53;;
15281;SDS011;7742;44.320;19.820;2024-02-16T00:45:11;14.70;;;13.80;;
15281;SDS011;7742;44.320;19.820;2024-02-16T00:47:38;14.37;;;13.57;;
15281;SDS011;7742;44.320;19.820;2024-02-16T00:50:07;15.20;;;14.30;;
15281;SDS011;7742;44.320;19.820;2024-02-16T00:52:34;15.87;;;14.87;;
15281;SDS011;7742;44.320;19.820;2024-02-16T00:55:02;14.17;;;13.27;;
15281;SDS011;7742;44.320;19.820;2024-02-16T00:57:30;16.80;;;15.60;;
15281;SDS011;7742;44.320;19.820;2024-02-16T00:59:58;16.07;;;14.97;;
15281;SDS011;7742;44.320;19.820;2024-02-16T01:02:25;16.33;;;15.27;;
15281;SDS011;7742;44.320;19.820;2024-02-16T01:04:52;17.10;;;16.00;;
15281;SDS011;7742;44.320;19.820;2024-02-16T01:07:24;15.27;;;14.43;;
15281;SDS011;7742;44.320;19.820;2024-02-16T01:09:51;15.00;;;14.10;;
15281;SDS011;7742;44.320;19.820;2024-02-16T01:12:18;17.10;;;16.00;;
15281;SDS011;7742;44.320;19.820;2024-02-16T01:14:45;17.50;;;16.47;;
15281;SDS011;7742;44.320;19.820;2024-02-16T01:17:12;13.17;;;12.37;;
15281;SDS011;7742;44.320;19.820;2024-02-16T01:19:39;16.33;;;15.33;;
15281;SDS011;7742;44.320;19.820;2024-02-16T01:22:06;16.93;;;15.93;;
15281;SDS011;7742;44.320;19.820;2024-02-16T01:24:35;15.33;;;14.43;;
15281;SDS011;7742;44.320;19.820;2024-02-16T01:27:02;15.77;;;14.97;;
15281;SDS011;7742;44.320;19.820;2024-02-16T01:29:29;13.90;;;13.10;;
15281;SDS011;7742;44.320;19.820;2024-02-16T01:31:57;14.97;;;14.17;;
15281;SDS011;7742;44.320;19.820;2024-02-16T01:34:24;15.50;;;14.70;;
15281;SDS011;7742;44.320;19.820;2024-02-16T01:36:51;15.43;;;14.53;;
15281;SDS011;7742;44.320;19.820;2024-02-16T01:39:18;14.27;;;13.57;;
15281;SDS011;7742;44.320;19.820;2024-02-16T01:41:46;14.70;;;13.83;;
15281;SDS011;7742;44.320;19.820;2024-02-16T01:44:13;16.07;;;15.27;;
15281;SDS011;7742;44.320;19.820;2024-02-16T01:46:42;16.53;;;15.53;;
15281;SDS011;7742;44.320;19.820;2024-02-16T01:49:09;15.17;;;14.37;;
15281;SDS011;7742;44.320;19.820;2024-02-16T01:51:36;12.43;;;11.83;;
15281;SDS011;7742;44.320;19.820;2024-02-16T01:54:03;15.00;;;14.20;;
15281;SDS011;7742;44.320;19.820;2024-02-16T01:56:30;14.90;;;14.00;;
15281;SDS011;7742;44.320;19.820;2024-02-16T01:58:59;14.33;;;13.53;;
15281;SDS011;7742;44.320;19.820;2024-02-16T02:01:26;14.83;;;14.03;;
15281;SDS011;7742;44.320;19.820;2024-02-16T02:03:52;13.30;;;12.70;;
15281;SDS011;7742;44.320;19.820;2024-02-16T02:06:19;14.60;;;13.80;;
15281;SDS011;7742;44.320;19.820;2024-02-16T02:08:46;13.40;;;12.70;;
15281;SDS011;7742;44.320;19.820;2024-02-16T02:11:13;14.30;;;13.50;;
15281;SDS011;7742;44.320;19.820;2024-02-16T02:13:40;14.43;;;13.63;;
15281;SDS011;7742;44.320;19.820;2024-02-16T02:16:09;14.00;;;13.27;;
15281;SDS011;7742;44.320;19.820;2024-02-16T02:18:37;13.57;;;12.83;;
15281;SDS011;7742;44.320;19.820;2024-02-16T02:21:04;14.40;;;13.60;;
15281;SDS011;7742;44.320;19.820;2024-02-16T02:23:32;13.50;;;12.80;;
15281;SDS011;7742;44.320;19.820;2024-02-16T02:25:59;12.97;;;12.33;;
15281;SDS011;7742;44.320;19.820;2024-02-16T02:28:26;13.80;;;13.00;;
15281;SDS011;7742;44.320;19.820;2024-02-16T02:30:54;13.67;;;12.87;;
15281;SDS011;7742;44.320;19.820;2024-02-16T02:33:21;13.77;;;12.93;;
15281;SDS011;7742;44.320;19.820;2024-02-16T02:35:48;14.67;;;13.67;;
15281;SDS011;7742;44.320;19.820;2024-02-16T02:38:15;13.83;;;12.93;;
15281;SDS011;7742;44.320;19.820;2024-02-16T02:40:43;14.07;;;13.33;;
15281;SDS011;7742;44.320;19.820;2024-02-16T02:43:10;14.90;;;14.00;;
15281;SDS011;7742;44.320;19.820;2024-02-16T02:45:37;12.97;;;12.27;;
15281;SDS011;7742;44.320;19.820;2024-02-16T02:48:05;14.53;;;13.77;;
15281;SDS011;7742;44.320;19.820;2024-02-16T02:50:32;13.83;;;13.03;;
15281;SDS011;7742;44.320;19.820;2024-02-16T02:52:58;14.90;;;14.10;;
15281;SDS011;7742;44.320;19.820;2024-02-16T02:55:25;14.33;;;13.53;;
15281;SDS011;7742;44.320;19.820;2024-02-16T02:57:54;14.63;;;13.93;;
15281;SDS011;7742;44.320;19.820;2024-02-16T03:00:23;13.57;;;12.87;;
15281;SDS011;7742;44.320;19.820;2024-02-16T03:02:51;14.70;;;13.90;;
15281;SDS011;7742;44.320;19.820;2024-02-16T03:05:18;14.37;;;13.50;;
15281;SDS011;7742;44.320;19.820;2024-02-16T03:07:45;14.10;;;13.33;;
15281;SDS011;7742;44.320;19.820;2024-02-16T03:10:12;14.47;;;13.77;;
15281;SDS011;7742;44.320;19.820;2024-02-16T03:12:45;14.00;;;13.30;;
15281;SDS011;7742;44.320;19.820;2024-02-16T03:15:16;11.60;;;11.00;;
15281;SDS011;7742;44.320;19.820;2024-02-16T03:17:43;13.60;;;12.87;;
15281;SDS011;7742;44.320;19.820;2024-02-16T03:20:10;14.30;;;13.57;;
15281;SDS011;7742;44.320;19.820;2024-02-16T03:22:37;14.50;;;13.70;;
15281;SDS011;7742;44.320;19.820;2024-02-16T03:25:04;14.73;;;14.03;;
15281;SDS011;7742;44.320;19.820;2024-02-16T03:27:31;13.77;;;13.10;;
15281;SDS011;7742;44.320;19.820;2024-02-16T03:29:58;14.70;;;13.90;;
15281;SDS011;7742;44.320;19.820;2024-02-16T03:32:26;15.17;;;14.37;;
15281;SDS011;7742;44.320;19.820;2024-02-16T03:34:53;14.23;;;13.53;;
15281;SDS011;7742;44.320;19.820;2024-02-16T03:37:23;14.37;;;13.67;;
15281;SDS011;7742;44.320;19.820;2024-02-16T03:39:50;15.20;;;14.40;;
15281;SDS011;7742;44.320;19.820;2024-02-16T03:42:17;13.67;;;12.97;;
15281;SDS011;7742;44.320;19.820;2024-02-16T03:44:44;14.07;;;13.47;;
15281;SDS011;7742;44.320;19.820;2024-02-16T03:47:11;13.40;;;12.80;;
15281;SDS011;7742;44.320;19.820;2024-02-16T03:49:42;14.13;;;13.43;;
15281;SDS011;7742;44.320;19.820;2024-02-16T03:52:09;14.40;;;13.70;;
15281;SDS011;7742;44.320;19.820;2024-02-16T03:54:36;13.50;;;12.80;;
15281;SDS011;7742;44.320;19.820;2024-02-16T03:57:03;13.37;;;12.77;;
15281;SDS011;7742;44.320;19.820;2024-02-16T03:59:34;14.27;;;13.37;;
15281;SDS011;7742;44.320;19.820;2024-02-16T04:02:01;12.00;;;11.30;;
15281;SDS011;7742;44.320;19.820;2024-02-16T04:04:28;13.97;;;13.27;;
15281;SDS011;7742;44.320;19.820;2024-02-16T04:06:57;14.30;;;13.60;;
15281;SDS011;7742;44.320;19.820;2024-02-16T04:09:24;12.93;;;12.27;;
15281;SDS011;7742;44.320;19.820;2024-02-16T04:11:51;12.07;;;11.47;;
15281;SDS011;7742;44.320;19.820;2024-02-16T04:14:17;12.30;;;11.70;;
15281;SDS011;7742;44.320;19.820;2024-02-16T04:16:44;9.80;;;9.30;;
15281;SDS011;7742;44.320;19.820;2024-02-16T04:19:11;9.60;;;8.93;;
15281;SDS011;7742;44.320;19.820;2024-02-16T04:21:38;12.97;;;12.20;;
15281;SDS011;7742;44.320;19.820;2024-02-16T04:24:07;12.60;;;12.03;;
15281;SDS011;7742;44.320;19.820;2024-02-16T04:26:34;12.90;;;12.30;;
15281;SDS011;7742;44.320;19.820;2024-02-16T04:29:01;12.30;;;11.77;;
15281;SDS011;7742;44.320;19.820;2024-02-16T04:31:29;13.80;;;13.20;;
15281;SDS011;7742;44.320;19.820;2024-02-16T04:33:56;18.37;;;17.27;;
15281;SDS011;7742;44.320;19.820;2024-02-16T04:36:23;15.50;;;14.80;;
15281;SDS011;7742;44.320;19.820;2024-02-16T04:38:50;14.10;;;13.40;;
15281;SDS011;7742;44.320;19.820;2024-02-16T04:41:20;16.30;;;15.40;;
15281;SDS011;7742;44.320;19.820;2024-02-16T04:43:47;16.90;;;15.90;;
15281;SDS011;7742;44.320;19.820;2024-02-16T04:46:14;13.43;;;12.83;;
15281;SDS011;7742;44.320;19.820;2024-02-16T04:48:42;13.60;;;13.00;;
15281;SDS011;7742;44.320;19.820;2024-02-16T04:51:09;10.87;;;10.37;;
15281;SDS011;7742;44.320;19.820;2024-02-16T04:53:36;12.70;;;12.00;;
15281;SDS011;7742;44.320;19.820;2024-02-16T04:56:03;12.00;;;11.40;;
15281;SDS011;7742;44.320;19.820;2024-02-16T04:58:32;11.37;;;10.87;;
15281;SDS011;7742;44.320;19.820;2024-02-16T05:00:59;11.13;;;10.63;;
15281;SDS011;7742;44.320;19.820;2024-02-16T05:03:26;12.27;;;11.50;;
15281;SDS011;7742;44.320;19.820;2024-02-16T05:05:53;12.33;;;11.73;;
15281;SDS011;7742;44.320;19.820;2024-02-16T05:08:22;13.10;;;12.50;;
15281;SDS011;7742;44.320;19.820;2024-02-16T05:10:49;13.70;;;13.10;;
15281;SDS011;7742;44.320;19.820;2024-02-16T05:13:16;13.00;;;12.40;;
15281;SDS011;7742;44.320;19.820;2024-02-16T05:15:44;13.80;;;13.20;;
15281;SDS011;7742;44.320;19.820;2024-02-16T05:18:14;14.23;;;13.53;;
15281;SDS011;7742;44.320;19.820;2024-02-16T05:20:42;13.97;;;13.17;;
15281;SDS011;7742;44.320;19.820;2024-02-16T05:23:09;13.87;;;13.27;;
15281;SDS011;7742;44.320;19.820;2024-02-16T05:25:37;14.23;;;13.63;;
15281;SDS011;7742;44.320;19.820;2024-02-16T05:28:04;14.63;;;14.03;;
15281;SDS011;7742;44.320;19.820;2024-02-16T05:30:31;12.50;;;11.80;;
15281;SDS011;7742;44.320;19.820;2024-02-16T05:32:59;13.27;;;12.67;;
15281;SDS011;7742;44.320;19.820;2024-02-16T05:35:28;12.10;;;11.60;;
15281;SDS011;7742;44.320;19.820;2024-02-16T05:37:59;13.37;;;12.67;;
15281;SDS011;7742;44.320;19.820;2024-02-16T05:40:32;13.37;;;12.77;;
15281;SDS011;7742;44.320;19.820;2024-02-16T05:43:10;13.03;;;12.43;;
15281;SDS011;7742;44.320;19.820;2024-02-16T05:45:37;13.27;;;12.57;;
15281;SDS011;7742;44.320;19.820;2024-02-16T05:48:08;12.50;;;11.93;;
15281;SDS011;7742;44.320;19.820;2024-02-16T05:50:35;13.50;;;12.90;;
15281;SDS011;7742;44.320;19.820;2024-02-16T05:53:02;12.83;;;12.23;;
15281;SDS011;7742;44.320;19.820;2024-02-16T05:55:29;13.30;;;12.70;;
15281;SDS011;7742;44.320;19.820;2024-02-16T05:57:56;14.03;;;13.23;;
15281;SDS011;7742;44.320;19.820;2024-02-16T06:00:23;12.57;;;11.87;;
15281;SDS011;7742;44.320;19.820;2024-02-16T06:02:50;14.27;;;13.47;;
15281;SDS011;7742;44.320;19.820;2024-02-16T06:05:18;11.80;;;11.20;;
15281;SDS011;7742;44.320;19.820;2024-02-16T06:07:46;10.90;;;10.33;;
15281;SDS011;7742;44.320;19.820;2024-02-16T06:10:13;13.37;;;12.67;;
15281;SDS011;7742;44.320;19.820;2024-02-16T06:12:40;12.13;;;11.57;;
15281;SDS011;7742;44.320;19.820;2024-02-16T06:15:08;11.93;;;11.40;;
15281;SDS011;7742;44.320;19.820;2024-02-16T06:17:35;12.93;;;12.33;;
15281;SDS011;7742;44.320;19.820;2024-02-16T06:20:02;11.20;;;10.70;;
15281;SDS011;7742;44.320;19.820;2024-02-16T06:22:31;12.00;;;11.50;;
15281;SDS011;7742;44.320;19.820;2024-02-16T06:24:59;12.27;;;11.77;;
15281;SDS011;7742;44.320;19.820;2024-02-16T06:27:26;10.50;;;10.00;;
15281;SDS011;7742;44.320;19.820;2024-02-16T06:29:53;11.03;;;10.53;;
15281;SDS011;7742;44.320;19.820;2024-02-16T06:32:20;12.20;;;11.60;;
15281;SDS011;7742;44.320;19.820;2024-02-16T06:34:49;12.10;;;11.60;;
15281;SDS011;7742;44.320;19.820;2024-02-16T06:37:16;12.30;;;11.80;;
15281;SDS011;7742;44.320;19.820;2024-02-16T06:39:44;9.43;;;9.03;;
15281;SDS011;7742;44.320;19.820;2024-02-16T06:42:11;8.57;;;8.17;;
15281;SDS011;7742;44.320;19.820;2024-02-16T06:44:38;9.30;;;8.90;;
15281;SDS011;7742;44.320;19.820;2024-02-16T06:47:05;10.27;;;9.87;;
15281;SDS011;7742;44.320;19.820;2024-02-16T06:49:32;9.70;;;9.30;;
15281;SDS011;7742;44.320;19.820;2024-02-16T06:52:01;9.27;;;8.77;;
15281;SDS011;7742;44.320;19.820;2024-02-16T06:54:28;9.43;;;8.93;;
15281;SDS011;7742;44.320;19.820;2024-02-16T06:56:56;9.37;;;8.90;;
15281;SDS011;7742;44.320;19.820;2024-02-16T06:59:23;10.57;;;10.00;;
15281;SDS011;7742;44.320;19.820;2024-02-16T07:01:50;10.77;;;10.27;;
15281;SDS011;7742;44.320;19.820;2024-02-16T07:04:18;10.90;;;10.40;;
15281;SDS011;7742;44.320;19.820;2024-02-16T07:06:45;11.27;;;10.77;;
15281;SDS011;7742;44.320;19.820;2024-02-16T07:09:12;11.00;;;10.40;;
15281;SDS011;7742;44.320;19.820;2024-02-16T07:11:40;11.57;;;10.97;;
15281;SDS011;7742;44.320;19.820;2024-02-16T07:14:09;11.90;;;11.30;;
15281;SDS011;7742;44.320;19.820;2024-02-16T07:16:36;11.50;;;11.00;;
15281;SDS011;7742;44.320;19.820;2024-02-16T07:19:03;10.23;;;9.73;;
15281;SDS011;7742;44.320;19.820;2024-02-16T07:21:30;11.57;;;10.97;;
15281;SDS011;7742;44.320;19.820;2024-02-16T07:23:57;10.70;;;10.20;;
15281;SDS011;7742;44.320;19.820;2024-02-16T07:26:24;15.53;;;14.73;;
15281;SDS011;7742;44.320;19.820;2024-02-16T07:28:51;11.17;;;10.53;;
15281;SDS011;7742;44.320;19.820;2024-02-16T07:31:20;11.27;;;10.57;;
15281;SDS011;7742;44.320;19.820;2024-02-16T07:33:47;11.50;;;10.90;;
15281;SDS011;7742;44.320;19.820;2024-02-16T07:36:14;12.10;;;11.27;;
15281;SDS011;7742;44.320;19.820;2024-02-16T07:38:43;12.50;;;11.80;;
15281;SDS011;7742;44.320;19.820;2024-02-16T07:41:10;11.80;;;11.10;;
15281;SDS011;7742;44.320;19.820;2024-02-16T07:43:37;12.00;;;11.33;;
15281;SDS011;7742;44.320;19.820;2024-02-16T07:46:04;9.33;;;8.73;;
15281;SDS011;7742;44.320;19.820;2024-02-16T07:48:32;12.23;;;11.53;;
15281;SDS011;7742;44.320;19.820;2024-02-16T07:51:00;11.67;;;10.93;;
15281;SDS011;7742;44.320;19.820;2024-02-16T07:53:28;12.37;;;11.47;;
15281;SDS011;7742;44.320;19.820;2024-02-16T07:55:55;12.60;;;11.83;;
15281;SDS011;7742;44.320;19.820;2024-02-16T07:58:22;12.10;;;11.40;;
15281;SDS011;7742;44.320;19.820;2024-02-16T08:00:49;11.73;;;10.90;;
15281;SDS011;7742;44.320;19.820;2024-02-16T08:03:16;12.50;;;11.70;;
15281;SDS011;7742;44.320;19.820;2024-02-16T08:05:45;11.50;;;10.83;;
15281;SDS011;7742;44.320;19.820;2024-02-16T08:08:12;11.80;;;11.20;;
15281;SDS011;7742;44.320;19.820;2024-02-16T08:10:38;12.60;;;11.90;;
15281;SDS011;7742;44.320;19.820;2024-02-16T08:13:05;12.63;;;11.73;;
15281;SDS011;7742;44.320;19.820;2024-02-16T08:15:32;11.40;;;10.80;;
15281;SDS011;7742;44.320;19.820;2024-02-16T08:18:08;13.60;;;12.80;;
15281;SDS011;7742;44.320;19.820;2024-02-16T08:23:54;12.37;;;11.63;;
15281;SDS011;7742;44.320;19.820;2024-02-16T08:26:21;12.00;;;11.20;;
15281;SDS011;7742;44.320;19.820;2024-02-16T08:28:50;11.47;;;10.67;;
15281;SDS011;7742;44.320;19.820;2024-02-16T08:31:17;10.67;;;10.07;;
15281;SDS011;7742;44.320;19.820;2024-02-16T08:33:44;12.23;;;11.43;;
15281;SDS011;7742;44.320;19.820;2024-02-16T08:36:12;11.57;;;10.77;;
15281;SDS011;7742;44.320;19.820;2024-02-16T08:38:39;11.30;;;10.50;;
15281;SDS011;7742;44.320;19.820;2024-02-16T08:41:07;11.57;;;10.67;;
15281;SDS011;7742;44.320;19.820;2024-02-16T08:43:37;12.50;;;11.70;;
15281;SDS011;7742;44.320;19.820;2024-02-16T08:46:04;9.87;;;9.27;;
15281;SDS011;7742;44.320;19.820;2024-02-16T08:48:32;12.63;;;11.83;;
15281;SDS011;7742;44.320;19.820;2024-02-16T08:51:02;12.60;;;11.73;;
15281;SDS011;7742;44.320;19.820;2024-02-16T08:53:35;13.17;;;12.43;;
15281;SDS011;7742;44.320;19.820;2024-02-16T08:56:03;13.40;;;12.60;;
15281;SDS011;7742;44.320;19.820;2024-02-16T08:58:32;10.93;;;10.23;;
15281;SDS011;7742;44.320;19.820;2024-02-16T09:01:05;10.93;;;10.23;;
15281;SDS011;7742;44.320;19.820;2024-02-16T09:03:52;10.67;;;9.97;;
15281;SDS011;7742;44.320;19.820;2024-02-16T09:06:19;10.30;;;9.70;;
15281;SDS011;7742;44.320;19.820;2024-02-16T09:08:46;11.23;;;10.53;;
15281;SDS011;7742;44.320;19.820;2024-02-16T09:11:13;12.10;;;11.30;;
15281;SDS011;7742;44.320;19.820;2024-02-16T09:13:42;10.93;;;10.43;;
15281;SDS011;7742;44.320;19.820;2024-02-16T09:16:09;10.00;;;9.40;;
15281;SDS011;7742;44.320;19.820;2024-02-16T09:18:36;10.07;;;9.47;;
15281;SDS011;7742;44.320;19.820;2024-02-16T09:21:03;11.20;;;10.33;;
15281;SDS011;7742;44.320;19.820;2024-02-16T09:23:31;12.17;;;11.47;;
15281;SDS011;7742;44.320;19.820;2024-02-16T09:25:58;13.87;;;12.97;;
15281;SDS011;7742;44.320;19.820;2024-02-16T09:28:25;14.37;;;13.47;;
15281;SDS011;7742;44.320;19.820;2024-02-16T09:48:11;12.70;;;11.90;;
15281;SDS011;7742;44.320;19.820;2024-02-16T09:54:03;16.03;;;14.73;;
15281;SDS011;7742;44.320;19.820;2024-02-16T09:56:41;15.00;;;14.00;;
15281;SDS011;7742;44.320;19.820;2024-02-16T09:59:20;16.63;;;15.40;;
15281;SDS011;7742;44.320;19.820;2024-02-16T10:02:17;16.63;;;15.27;;
15281;SDS011;7742;44.320;19.820;2024-02-16T10:04:56;19.83;;;17.93;;
15281;SDS011;7742;44.320;19.820;2024-02-16T10:16:29;14.67;;;13.57;;
15281;SDS011;7742;44.320;19.820;2024-02-16T10:28:28;14.57;;;13.50;;
15281;SDS011;7742;44.320;19.820;2024-02-16T10:37:30;13.47;;;12.67;;
15281;SDS011;7742;44.320;19.820;2024-02-16T10:41:34;17.33;;;16.23;;
15281;SDS011;7742;44.320;19.820;2024-02-16T10:43:27;14.97;;;14.07;;
15281;SDS011;7742;44.320;19.820;2024-02-16T10:46:00;15.03;;;14.23;;
15281;SDS011;7742;44.320;19.820;2024-02-16T10:48:41;16.10;;;15.10;;
15281;SDS011;7742;44.320;19.820;2024-02-16T10:51:25;15.07;;;14.10;;
15281;SDS011;7742;44.320;19.820;2024-02-16T10:57:26;15.80;;;14.80;;
15281;SDS011;7742;44.320;19.820;2024-02-16T11:06:14;14.67;;;13.87;;
15281;SDS011;7742;44.320;19.820;2024-02-16T11:08:54;14.60;;;13.80;;
15281;SDS011;7742;44.320;19.820;2024-02-16T11:14:37;12.83;;;12.07;;
15281;SDS011;7742;44.320;19.820;2024-02-16T11:17:09;10.80;;;10.20;;
15281;SDS011;7742;44.320;19.820;2024-02-16T11:19:38;11.10;;;10.50;;
15281;SDS011;7742;44.320;19.820;2024-02-16T11:22:26;10.47;;;9.87;;
15281;SDS011;7742;44.320;19.820;2024-02-16T11:24:53;12.07;;;11.17;;
15281;SDS011;7742;44.320;19.820;2024-02-16T11:27:24;11.90;;;11.20;;
15281;SDS011;7742;44.320;19.820;2024-02-16T11:30:00;13.33;;;12.53;;
15281;SDS011;7742;44.320;19.820;2024-02-16T11:32:33;13.10;;;12.40;;
15281;SDS011;7742;44.320;19.820;2024-02-16T11:35:11;13.63;;;12.93;;
15281;SDS011;7742;44.320;19.820;2024-02-16T11:43:42;12.00;;;11.30;;
15281;SDS011;7742;44.320;19.820;2024-02-16T11:46:14;11.70;;;11.10;;
15281;SDS011;7742;44.320;19.820;2024-02-16T11:48:41;12.00;;;11.30;;
15281;SDS011;7742;44.320;19.820;2024-02-16T11:51:08;12.50;;;11.73;;
15281;SDS011;7742;44.320;19.820;2024-02-16T11:53:44;10.90;;;10.17;;
15281;SDS011;7742;44.320;19.820;2024-02-16T11:59:23;15.27;;;14.27;;
15281;SDS011;7742;44.320;19.820;2024-02-16T12:02:00;14.97;;;13.97;;
15281;SDS011;7742;44.320;19.820;2024-02-16T12:04:45;11.70;;;11.00;;
15281;SDS011;7742;44.320;19.820;2024-02-16T12:07:33;12.20;;;11.50;;
15281;SDS011;7742;44.320;19.820;2024-02-16T12:10:00;13.53;;;12.73;;
15281;SDS011;7742;44.320;19.820;2024-02-16T12:12:27;13.30;;;12.40;;
15281;SDS011;7742;44.320;19.820;2024-02-16T12:14:54;11.60;;;10.83;;
15281;SDS011;7742;44.320;19.820;2024-02-16T12:17:23;11.70;;;11.10;;
15281;SDS011;7742;44.320;19.820;2024-02-16T12:19:51;9.70;;;9.10;;
15281;SDS011;7742;44.320;19.820;2024-02-16T12:22:18;11.83;;;10.57;;
15281;SDS011;7742;44.320;19.820;2024-02-16T12:24:45;11.60;;;10.93;;
15281;SDS011;7742;44.320;19.820;2024-02-16T12:27:12;11.90;;;11.20;;
15281;SDS011;7742;44.320;19.820;2024-02-16T12:29:39;12.93;;;12.23;;
15281;SDS011;7742;44.320;19.820;2024-02-16T12:32:06;13.20;;;12.50;;
15281;SDS011;7742;44.320;19.820;2024-02-16T12:34:36;13.50;;;12.70;;
15281;SDS011;7742;44.320;19.820;2024-02-16T12:37:04;12.07;;;11.27;;
15281;SDS011;7742;44.320;19.820;2024-02-16T12:39:32;12.60;;;11.80;;
15281;SDS011;7742;44.320;19.820;2024-02-16T12:41:59;12.83;;;11.93;;
15281;SDS011;7742;44.320;19.820;2024-02-16T12:44:26;11.23;;;10.53;;
15281;SDS011;7742;44.320;19.820;2024-02-16T12:46:53;12.23;;;11.57;;
15281;SDS011;7742;44.320;19.820;2024-02-16T12:49:20;12.70;;;11.90;;
15281;SDS011;7742;44.320;19.820;2024-02-16T12:51:49;12.57;;;11.77;;
15281;SDS011;7742;44.320;19.820;2024-02-16T12:54:16;14.10;;;12.97;;
15281;SDS011;7742;44.320;19.820;2024-02-16T12:56:44;13.23;;;12.40;;
15281;SDS011;7742;44.320;19.820;2024-02-16T12:59:11;14.17;;;13.27;;
15281;SDS011;7742;44.320;19.820;2024-02-16T13:01:37;13.53;;;12.73;;
15281;SDS011;7742;44.320;19.820;2024-02-16T13:04:04;13.03;;;12.23;;
15281;SDS011;7742;44.320;19.820;2024-02-16T13:06:31;12.73;;;11.93;;
15281;SDS011;7742;44.320;19.820;2024-02-16T13:08:59;13.37;;;12.47;;
15281;SDS011;7742;44.320;19.820;2024-02-16T13:11:27;13.73;;;12.80;;
15281;SDS011;7742;44.320;19.820;2024-02-16T13:13:59;14.17;;;13.27;;
15281;SDS011;7742;44.320;19.820;2024-02-16T13:16:28;13.17;;;12.40;;
15281;SDS011;7742;44.320;19.820;2024-02-16T13:18:55;14.43;;;13.47;;
15281;SDS011;7742;44.320;19.820;2024-02-16T13:21:25;13.50;;;12.60;;
15281;SDS011;7742;44.320;19.820;2024-02-16T13:23:52;12.33;;;11.63;;
15281;SDS011;7742;44.320;19.820;2024-02-16T13:26:29;15.33;;;14.23;;
15281;SDS011;7742;44.320;19.820;2024-02-16T13:29:01;13.63;;;12.73;;
15281;SDS011;7742;44.320;19.820;2024-02-16T13:31:53;15.23;;;14.07;;
15281;SDS011;7742;44.320;19.820;2024-02-16T13:34:20;15.17;;;14.27;;
15281;SDS011;7742;44.320;19.820;2024-02-16T13:36:54;15.43;;;14.43;;
15281;SDS011;7742;44.320;19.820;2024-02-16T13:39:21;14.63;;;13.73;;
15281;SDS011;7742;44.320;19.820;2024-02-16T13:41:57;14.33;;;13.37;;
15281;SDS011;7742;44.320;19.820;2024-02-16T13:44:24;15.63;;;14.50;;
15281;SDS011;7742;44.320;19.820;2024-02-16T13:46:51;14.90;;;13.80;;
15281;SDS011;7742;44.320;19.820;2024-02-16T13:49:18;15.40;;;14.30;;
15281;SDS011;7742;44.320;19.820;2024-02-16T13:51:45;15.33;;;14.23;;
15281;SDS011;7742;44.320;19.820;2024-02-16T13:54:12;16.00;;;14.90;;
15281;SDS011;7742;44.320;19.820;2024-02-16T13:56:46;15.87;;;14.67;;
15281;SDS011;7742;44.320;19.820;2024-02-16T14:08:37;16.07;;;14.97;;
15281;SDS011;7742;44.320;19.820;2024-02-16T14:11:17;14.77;;;13.57;;
15281;SDS011;7742;44.320;19.820;2024-02-16T14:13:55;14.10;;;13.10;;
15281;SDS011;7742;44.320;19.820;2024-02-16T14:16:47;16.33;;;15.13;;
15281;SDS011;7742;44.320;19.820;2024-02-16T14:20:01;17.00;;;15.70;;
15281;SDS011;7742;44.320;19.820;2024-02-16T14:34:29;17.40;;;16.00;;
15281;SDS011;7742;44.320;19.820;2024-02-16T14:36:58;17.40;;;15.90;;
15281;SDS011;7742;44.320;19.820;2024-02-16T14:39:25;18.27;;;16.97;;
15281;SDS011;7742;44.320;19.820;2024-02-16T14:41:51;14.47;;;13.13;;
15281;SDS011;7742;44.320;19.820;2024-02-16T14:44:19;19.90;;;18.20;;
15281;SDS011;7742;44.320;19.820;2024-02-16T14:46:46;18.30;;;16.93;;
15281;SDS011;7742;44.320;19.820;2024-02-16T14:49:13;18.63;;;17.17;;
15281;SDS011;7742;44.320;19.820;2024-02-16T14:51:47;17.67;;;16.37;;
15281;SDS011;7742;44.320;19.820;2024-02-16T14:54:14;18.70;;;17.00;;
15281;SDS011;7742;44.320;19.820;2024-02-16T14:56:41;19.53;;;17.93;;
15281;SDS011;7742;44.320;19.820;2024-02-16T14:59:08;18.53;;;17.13;;
15281;SDS011;7742;44.320;19.820;2024-02-16T15:01:35;19.53;;;17.87;;
15281;SDS011;7742;44.320;19.820;2024-02-16T15:04:02;17.40;;;16.07;;
15281;SDS011;7742;44.320;19.820;2024-02-16T15:06:29;18.23;;;16.83;;
15281;SDS011;7742;44.320;19.820;2024-02-16T15:09:00;19.00;;;17.40;;
15281;SDS011;7742;44.320;19.820;2024-02-16T15:11:28;20.47;;;18.87;;
15281;SDS011;7742;44.320;19.820;2024-02-16T15:13:55;19.13;;;17.67;;
15281;SDS011;7742;44.320;19.820;2024-02-16T15:16:22;18.40;;;16.90;;
15281;SDS011;7742;44.320;19.820;2024-02-16T15:18:49;18.80;;;17.40;;
15281;SDS011;7742;44.320;19.820;2024-02-16T15:21:16;18.23;;;16.93;;
15281;SDS011;7742;44.320;19.820;2024-02-16T15:23:45;15.90;;;14.70;;
15281;SDS011;7742;44.320;19.820;2024-02-16T15:26:23;18.77;;;17.33;;
15281;SDS011;7742;44.320;19.820;2024-02-16T15:28:54;19.27;;;17.67;;
15281;SDS011;7742;44.320;19.820;2024-02-16T15:31:24;17.87;;;16.53;;
15281;SDS011;7742;44.320;19.820;2024-02-16T15:34:02;18.30;;;16.67;;
15281;SDS011;7742;44.320;19.820;2024-02-16T15:36:29;17.37;;;15.97;;
15281;SDS011;7742;44.320;19.820;2024-02-16T15:38:56;17.47;;;15.87;;
15281;SDS011;7742;44.320;19.820;2024-02-16T15:41:24;16.90;;;15.50;;
15281;SDS011;7742;44.320;19.820;2024-02-16T15:43:53;17.97;;;16.40;;
15281;SDS011;7742;44.320;19.820;2024-02-16T15:46:19;19.50;;;17.80;;
15281;SDS011;7742;44.320;19.820;2024-02-16T15:48:46;16.60;;;15.30;;
15281;SDS011;7742;44.320;19.820;2024-02-16T15:51:15;19.07;;;17.33;;
15281;SDS011;7742;44.320;19.820;2024-02-16T15:53:42;17.40;;;16.00;;
15281;SDS011;7742;44.320;19.820;2024-02-16T15:56:09;18.20;;;16.60;;
15281;SDS011;7742;44.320;19.820;2024-02-16T15:58:37;19.10;;;17.40;;
15281;SDS011;7742;44.320;19.820;2024-02-16T16:01:04;17.63;;;16.13;;
15281;SDS011;7742;44.320;19.820;2024-02-16T16:03:31;17.67;;;16.17;;
15281;SDS011;7742;44.320;19.820;2024-02-16T16:05:58;18.83;;;17.33;;